Time;durP1;ratioP1;P1;durP2;ratioP2;P2;SDS_P1;SDS_P2;PMS_P1;PMS_P2;Temp;Humidity;BMP_temperature;BMP_pressure;BME280_temperature;BME280_humidity;BME280_pressure;Samples;Min_cycle;Max_cycle;Signal;HPM_P1;HPM_P2
2023/12/08 00:11:14;;;;;;;8.20;6.50;;;;;;;20.26;50.52;100659.38;41647465;28;20053;-76
2023/12/08 00:31:15;;;;;;;8.95;6.90;;;;;;;20.25;50.45;100676.09;41653225;28;20053;-71
2023/12/08 00:51:15;;;;;;;9.65;6.07;;;;;;;20.29;50.15;100700.41;41640702;28;20069;-69
2023/12/08 01:11:15;;;;;;;6.63;5.78;;;;;;;20.27;49.73;100682.06;41657833;28;20488;-70
2023/12/08 01:31:16;;;;;;;8.10;6.13;;;;;;;20.29;49.56;100698.59;41649620;28;20052;-72
2023/12/08 01:51:17;;;;;;;6.35;5.70;;;;;;;20.26;50.04;100706.72;41667910;28;20042;-70
2023/12/08 02:11:18;;;;;;;6.38;5.63;;;;;;;20.29;49.54;100693.34;41659346;28;20079;-73
2023/12/08 02:31:25;;;;;;;7.45;5.90;;;;;;;20.27;49.47;100679.44;41657981;28;20059;-71
2023/12/08 02:51:25;;;;;;;;;;;;;;;20.24;49.51;100684.94;41661569;28;20477;-71
2023/12/08 03:11:26;;;;;;;8.55;6.00;;;;;;;20.25;49.49;100698.91;41663809;28;19933;-71
2023/12/08 03:31:29;;;;;;;6.80;5.80;;;;;;;20.27;49.36;100692.59;41652956;28;20060;-72
2023/12/08 03:51:31;;;;;;;6.70;5.63;;;;;;;20.28;49.11;100704.78;41655523;28;20045;-72
2023/12/08 04:11:32;;;;;;;6.60;5.68;;;;;;;20.28;49.41;100689.00;41641832;28;20523;-72
2023/12/08 04:31:32;;;;;;;7.90;5.97;;;;;;;20.32;49.07;100671.25;41629662;28;20044;-71
2023/12/08 04:51:35;;;;;;;13.80;7.43;;;;;;;20.44;49.93;100651.97;41587310;28;20168;-72
2023/12/08 05:11:35;;;;;;;13.45;7.40;;;;;;;20.47;50.04;100643.88;41560747;28;20412;-82
2023/12/08 05:31:36;;;;;;;11.73;6.95;;;;;;;20.83;50.02;100661.63;41591220;28;20118;-74
2023/12/08 05:51:37;;;;;;;15.32;7.85;;;;;;;20.87;45.54;100673.59;41596329;28;20087;-81
2023/12/08 06:11:37;;;;;;;9.70;7.57;;;;;;;21.15;45.90;100677.72;41617251;28;20042;-83
2023/12/08 06:31:38;;;;;;;11.18;6.90;;;;;;;21.27;45.02;100678.63;41664340;28;20044;-82
2023/12/08 06:51:38;;;;;;;8.98;6.57;;;;;;;21.29;45.47;100700.41;41662775;28;20045;-80
2023/12/08 07:11:38;;;;;;;9.77;6.38;;;;;;;21.43;46.59;100692.34;41664285;28;20124;-77
2023/12/08 07:31:39;;;;;;;8.95;6.90;;;;;;;21.42;46.54;100711.75;41669418;28;20033;-78
2023/12/08 07:51:39;;;;;;;7.72;6.68;;;;;;;21.32;45.84;100694.09;41637547;28;20954;-78
2023/12/08 08:11:40;;;;;;;12.10;7.90;;;;;;;21.41;46.24;100707.41;41619678;28;20114;-77
2023/12/08 08:31:40;;;;;;;10.50;8.18;;;;;;;21.42;47.14;100703.84;41647298;28;20513;-76
2023/12/08 08:51:41;;;;;;;10.68;8.85;;;;;;;21.31;47.30;100711.66;41641781;28;20045;-76
2023/12/08 09:11:41;;;;;;;12.88;9.52;;;;;;;21.24;47.09;100670.94;41626428;28;20041;-76
2023/12/08 09:31:42;;;;;;;15.73;11.65;;;;;;;21.54;46.49;100699.44;41634493;28;20090;-77
2023/12/08 09:51:43;;;;;;;13.85;11.73;;;;;;;21.58;45.82;100669.31;41639496;28;20441;-78
2023/12/08 10:11:44;;;;;;;13.95;11.50;;;;;;;21.59;47.00;100651.69;41660453;28;20047;-76
2023/12/08 10:31:46;;;;;;;12.60;10.50;;;;;;;21.53;46.81;100631.06;41646906;28;20457;-77
2023/12/08 10:51:47;;;;;;;13.32;10.02;;;;;;;21.69;46.23;100629.00;41634167;28;20054;-78
2023/12/08 11:11:58;;;;;;;13.82;10.10;;;;;;;21.64;45.72;100607.41;41630266;28;20049;-76
2023/12/08 11:32:29;;;;;;;13.15;10.10;;;;;;;21.56;45.22;100596.59;41643358;28;20033;-73
2023/12/08 11:52:32;;;;;;;13.63;9.90;;;;;;;21.51;45.14;100582.94;41649837;28;20710;-74
2023/12/08 12:12:35;;;;;;;11.10;9.13;;;;;;;21.49;44.97;100582.19;41656788;28;21139;-74
2023/12/08 12:32:38;;;;;;;12.30;9.02;;;;;;;21.53;44.66;100588.91;41643137;28;20049;-73
2023/12/08 12:52:41;;;;;;;11.45;8.75;;;;;;;21.45;44.77;100576.31;41642647;28;20067;-75
2023/12/08 13:12:42;;;;;;;13.70;9.45;;;;;;;21.40;44.16;100560.84;41622775;28;20532;-77
2023/12/08 13:32:44;;;;;;;15.15;9.52;;;;;;;21.38;43.99;100570.66;41644191;28;20045;-75
2023/12/08 13:52:44;;;;;;;22.08;12.85;;;;;;;21.45;44.49;100560.50;41687803;28;20454;-76
2023/12/08 14:12:45;;;;;;;28.17;13.30;;;;;;;21.51;45.63;100565.31;41660044;28;20084;-75
2023/12/08 14:32:45;;;;;;;21.02;13.25;;;;;;;21.43;46.51;100557.16;41671279;28;20033;-75
2023/12/08 14:52:46;;;;;;;24.23;13.63;;;;;;;21.39;45.79;100566.25;41652136;28;20466;-75
2023/12/08 15:12:47;;;;;;;21.05;13.23;;;;;;;21.18;45.80;100616.06;41656115;28;20053;-76
2023/12/08 15:32:48;;;;;;;20.80;12.70;;;;;;;21.00;46.32;100608.59;41631023;28;20532;-77
2023/12/08 15:52:49;;;;;;;16.10;11.52;;;;;;;20.83;45.43;100603.72;41662666;28;20118;-78
2023/12/08 16:12:50;;;;;;;19.27;12.48;;;;;;;21.01;46.52;100605.00;41632783;28;20049;-76
2023/12/08 16:32:50;;;;;;;23.48;14.30;;;;;;;21.00;46.56;100624.38;41648683;28;20048;-77
2023/12/08 16:52:52;;;;;;;17.77;13.02;;;;;;;20.93;47.02;100623.16;41653124;28;20045;-77
2023/12/08 17:12:52;;;;;;;17.67;11.43;;;;;;;20.90;46.99;100642.63;41654377;28;20160;-76
2023/12/08 17:32:53;;;;;;;18.83;12.50;;;;;;;20.77;47.27;100658.47;41643252;28;20092;-75
2023/12/08 17:52:53;;;;;;;19.02;11.90;;;;;;;20.84;49.18;100673.84;41627499;28;20136;-75
2023/12/08 18:12:54;;;;;;;14.13;10.00;;;;;;;20.89;49.04;100684.88;41689489;28;20052;-80
2023/12/08 18:32:54;;;;;;;16.08;10.35;;;;;;;20.75;49.06;100685.84;41655305;28;20117;-83
2023/12/08 18:52:55;;;;;;;13.18;9.38;;;;;;;20.73;49.04;100693.00;41657250;28;20099;-81
2023/12/08 19:12:56;;;;;;;17.58;8.68;;;;;;;20.66;47.90;100689.94;41659918;28;20091;-80
2023/12/08 19:32:57;;;;;;;19.40;10.00;;;;;;;20.31;48.14;100695.84;41703366;28;20187;-70
2023/12/08 19:52:58;;;;;;;13.63;9.27;;;;;;;20.56;48.03;100704.69;41604141;28;20644;-73
2023/12/08 20:12:59;;;;;;;17.70;9.00;;;;;;;20.51;48.83;100715.53;41646199;28;20084;-77
2023/12/08 20:33:00;;;;;;;14.23;8.70;;;;;;;20.20;49.02;100724.69;41661592;28;20500;-75
2023/12/08 20:53:00;;;;;;;13.27;8.90;;;;;;;20.53;48.58;100724.16;41621276;28;20069;-71
2023/12/08 21:13:01;;;;;;;13.48;8.82;;;;;;;20.52;48.73;100726.88;41655713;28;20136;-71
2023/12/08 21:33:01;;;;;;;12.32;8.18;;;;;;;20.48;48.81;100739.41;41644407;28;20037;-71
2023/12/08 21:53:02;;;;;;;11.77;8.27;;;;;;;20.47;49.22;100740.38;41680192;28;20101;-71
2023/12/08 22:13:02;;;;;;;10.38;7.50;;;;;;;20.35;50.89;100754.34;41689812;28;20036;-71
2023/12/08 22:33:03;;;;;;;10.88;7.47;;;;;;;20.34;50.84;100764.03;41660054;28;20037;-70
2023/12/08 22:53:03;;;;;;;10.15;7.32;;;;;;;20.29;50.96;100743.28;41652068;28;20042;-75
2023/12/08 23:13:04;;;;;;;9.38;7.20;;;;;;;20.25;51.23;100733.94;41660177;28;20037;-69
2023/12/08 23:33:04;;;;;;;10.02;7.80;;;;;;;20.26;51.40;100737.41;41652487;28;20044;-71
2023/12/08 23:53:05;;;;;;;8.20;6.75;;;;;;;20.22;51.55;100738.56;41634573;28;20088;-72
